createdAt,value
2019-02-20T00:00:28.670Z,14.20
2019-02-20T00:02:57.110Z,13.93
2019-02-20T00:05:25.502Z,14.70
2019-02-20T00:07:53.902Z,15.33
2019-02-20T00:10:22.313Z,15.53
2019-02-20T00:12:50.723Z,15.70
2019-02-20T00:15:19.130Z,14.50
2019-02-20T00:17:47.529Z,12.73
2019-02-20T00:20:15.930Z,12.97
2019-02-20T00:22:44.347Z,11.47
2019-02-20T00:25:12.750Z,12.57
2019-02-20T00:27:41.150Z,13.10
2019-02-20T00:30:10.625Z,11.43
2019-02-20T00:32:39.329Z,11.53
2019-02-20T00:35:07.803Z,11.00
2019-02-20T00:37:36.211Z,9.77
2019-02-20T00:40:07.314Z,11.33
2019-02-20T00:42:35.745Z,10.23
2019-02-20T00:45:07.535Z,11.33
2019-02-20T00:47:37.570Z,11.37
2019-02-20T00:50:06.696Z,11.03
2019-02-20T00:52:49.770Z,11.17
2019-02-20T00:55:15.786Z,11.03
2019-02-20T00:58:03.524Z,9.93
2019-02-20T01:00:32.070Z,9.70
2019-02-20T01:03:00.470Z,9.20
2019-02-20T01:05:28.928Z,9.30
2019-02-20T01:07:57.347Z,10.47
2019-02-20T01:10:25.826Z,9.10
2019-02-20T01:12:54.244Z,9.90
2019-02-20T01:15:22.673Z,9.43
2019-02-20T01:17:51.074Z,9.37
2019-02-20T01:20:19.791Z,9.23
2019-02-20T01:22:48.182Z,8.70
2019-02-20T01:25:16.592Z,8.47
2019-02-20T01:27:45.497Z,9.03
2019-02-20T01:30:13.949Z,9.00
2019-02-20T01:32:42.350Z,7.83
2019-02-20T01:35:30.164Z,9.20
2019-02-20T01:37:58.558Z,9.40
2019-02-20T01:40:26.970Z,9.10
2019-02-20T01:42:55.378Z,9.77
2019-02-20T01:45:23.776Z,8.73
2019-02-20T01:48:11.525Z,9.87
2019-02-20T01:50:39.934Z,8.00
2019-02-20T01:53:10.622Z,9.17
2019-02-20T01:55:38.462Z,8.07
2019-02-20T01:58:07.126Z,10.47
2019-02-20T02:00:35.680Z,9.83
2019-02-20T02:03:04.138Z,9.83
2019-02-20T02:05:32.557Z,8.97
2019-02-20T02:08:00.949Z,9.77
2019-02-20T02:10:48.726Z,9.57
2019-02-20T02:13:17.137Z,9.33
2019-02-20T02:15:45.539Z,9.23
2019-02-20T02:18:13.953Z,10.60
2019-02-20T02:20:42.360Z,10.17
2019-02-20T02:23:19.445Z,9.80
2019-02-20T02:25:40.887Z,9.13
2019-02-20T02:28:09.319Z,9.03
2019-02-20T02:30:37.707Z,9.67
2019-02-20T02:33:06.112Z,9.43
2019-02-20T02:35:34.509Z,9.03
2019-02-20T02:38:02.931Z,9.37
2019-02-20T02:40:31.326Z,9.77
2019-02-20T02:42:59.726Z,9.77
2019-02-20T02:45:28.144Z,9.70
2019-02-20T02:47:56.539Z,9.57
2019-02-20T02:50:24.934Z,8.87
2019-02-20T02:52:53.354Z,8.20
2019-02-20T02:55:21.778Z,9.13
2019-02-20T02:57:50.204Z,9.97
2019-02-20T03:00:18.931Z,9.83
2019-02-20T03:02:47.333Z,9.27
2019-02-20T03:05:15.739Z,9.70
2019-02-20T03:07:44.141Z,9.70
2019-02-20T03:10:12.540Z,9.37
2019-02-20T03:12:40.954Z,10.03
2019-02-20T03:15:09.937Z,9.83
2019-02-20T03:17:38.427Z,10.10
2019-02-20T03:20:08.865Z,9.63
2019-02-20T03:22:37.306Z,10.63
2019-02-20T03:25:06.644Z,9.80
2019-02-20T03:27:35.075Z,10.33
2019-02-20T03:30:04.431Z,9.77
2019-02-20T03:32:32.831Z,9.80
2019-02-20T03:35:01.311Z,9.60
2019-02-20T03:37:29.713Z,9.53
2019-02-20T03:39:58.107Z,9.27
2019-02-20T03:42:26.510Z,8.77
2019-02-20T03:45:14.333Z,8.67
2019-02-20T03:47:42.723Z,8.83
2019-02-20T03:50:30.471Z,8.83
2019-02-20T03:52:58.893Z,9.27
2019-02-20T03:55:27.558Z,9.27
2019-02-20T03:57:55.954Z,9.70
2019-02-20T04:00:24.358Z,9.17
2019-02-20T04:02:52.815Z,9.63
2019-02-20T04:05:21.226Z,9.33
2019-02-20T04:07:49.629Z,10.77
2019-02-20T04:10:18.045Z,9.43
2019-02-20T04:12:46.439Z,9.67
2019-02-20T04:15:14.854Z,9.20
2019-02-20T04:17:43.266Z,9.93
2019-02-20T04:20:11.662Z,9.00
2019-02-20T04:22:40.083Z,11.00
2019-02-20T04:25:08.753Z,10.27
2019-02-20T04:27:37.202Z,10.53
2019-02-20T04:30:08.343Z,10.97
2019-02-20T04:32:36.768Z,10.23
2019-02-20T04:35:05.521Z,10.97
2019-02-20T04:37:33.938Z,10.43
2019-02-20T04:40:02.438Z,11.47
2019-02-20T04:42:30.834Z,11.37
2019-02-20T04:44:59.229Z,11.10
2019-02-20T04:47:27.646Z,11.43
2019-02-20T04:49:56.062Z,10.73
2019-02-20T04:52:24.466Z,10.17
2019-02-20T04:54:52.866Z,10.90
2019-02-20T04:57:21.459Z,10.17
2019-02-20T04:59:49.860Z,10.33
2019-02-20T05:02:18.262Z,10.93
2019-02-20T05:04:46.659Z,11.73
2019-02-20T05:07:15.062Z,10.17
2019-02-20T05:09:43.464Z,9.87
2019-02-20T05:12:11.850Z,9.60
2019-02-20T05:14:40.266Z,9.60
2019-02-20T05:17:27.995Z,8.97
2019-02-20T05:19:56.406Z,8.33
2019-02-20T05:22:24.819Z,9.70
2019-02-20T05:24:53.207Z,9.23
2019-02-20T05:27:22.067Z,9.40
2019-02-20T05:29:50.486Z,9.27
2019-02-20T05:32:18.960Z,8.43
2019-02-20T05:34:47.363Z,8.23
2019-02-20T05:37:15.759Z,9.37
2019-02-20T05:39:44.402Z,8.77
2019-02-20T05:42:12.829Z,8.17
2019-02-20T05:44:41.219Z,9.33
2019-02-20T05:47:09.626Z,8.70
2019-02-20T05:49:38.026Z,8.77
2019-02-20T05:52:06.778Z,8.53
2019-02-20T05:54:35.393Z,9.77
2019-02-20T05:57:03.968Z,9.53
2019-02-20T05:59:32.359Z,9.10
2019-02-20T06:02:00.753Z,9.23
2019-02-20T06:04:29.174Z,9.27
2019-02-20T06:06:57.571Z,9.80
2019-02-20T06:09:25.995Z,10.03
2019-02-20T06:11:54.387Z,10.37
2019-02-20T06:14:22.851Z,10.80
2019-02-20T06:16:51.891Z,11.33
2019-02-20T06:19:20.287Z,12.07
2019-02-20T06:21:48.714Z,12.47
2019-02-20T06:24:17.262Z,11.60
2019-02-20T06:26:45.665Z,11.00
2019-02-20T06:29:14.112Z,11.40
2019-02-20T06:31:42.815Z,10.63
2019-02-20T06:34:11.287Z,9.97
2019-02-20T06:36:39.682Z,10.77
2019-02-20T06:39:08.149Z,10.97
2019-02-20T06:41:39.136Z,10.90
2019-02-20T06:44:06.675Z,11.67
2019-02-20T06:46:35.242Z,10.60
2019-02-20T06:49:03.642Z,10.90
2019-02-20T06:51:32.399Z,11.87
2019-02-20T06:54:01.170Z,11.43
2019-02-20T06:56:29.570Z,17.27
2019-02-20T06:58:57.982Z,11.20
2019-02-20T07:01:45.715Z,10.53
2019-02-20T07:04:14.126Z,10.30
2019-02-20T07:06:45.605Z,10.70
2019-02-20T07:09:34.770Z,11.43
2019-02-20T07:12:06.273Z,11.63
2019-02-20T07:14:46.864Z,12.97
2019-02-20T07:17:34.829Z,13.97
2019-02-20T07:20:11.951Z,13.07
2019-02-20T07:22:58.527Z,13.10
2019-02-20T07:25:55.883Z,13.30
2019-02-20T07:28:45.163Z,13.13
2019-02-20T07:31:13.577Z,12.20
2019-02-20T07:33:41.998Z,11.63
2019-02-20T07:36:10.378Z,12.60
2019-02-20T07:38:38.805Z,13.70
2019-02-20T07:41:07.222Z,14.33
2019-02-20T07:43:35.613Z,12.57
2019-02-20T07:46:04.102Z,13.33
2019-02-20T07:48:32.507Z,13.93
2019-02-20T07:51:00.894Z,13.07
2019-02-20T07:53:29.311Z,12.93
2019-02-20T07:55:57.710Z,13.07
2019-02-20T07:58:26.117Z,12.67
2019-02-20T08:00:54.524Z,10.30
2019-02-20T08:03:22.926Z,10.70
2019-02-20T08:05:51.337Z,12.27
2019-02-20T08:08:19.747Z,10.60
2019-02-20T08:10:48.136Z,10.20
2019-02-20T08:13:16.539Z,9.53
2019-02-20T08:15:45.253Z,9.07
2019-02-20T08:18:13.650Z,10.57
2019-02-20T08:20:42.038Z,9.97
2019-02-20T08:23:10.497Z,10.20
2019-02-20T08:25:38.899Z,9.90
2019-02-20T08:28:07.293Z,10.30
2019-02-20T08:30:35.707Z,10.23
2019-02-20T08:33:04.182Z,10.93
2019-02-20T08:35:32.896Z,10.80
2019-02-20T08:38:01.550Z,10.83
2019-02-20T08:40:29.947Z,10.43
2019-02-20T08:42:58.371Z,11.27
2019-02-20T08:45:27.018Z,11.30
2019-02-20T08:47:55.417Z,10.70
2019-02-20T08:50:23.827Z,10.83
2019-02-20T08:52:52.223Z,11.30
2019-02-20T08:55:20.635Z,9.93
2019-02-20T08:57:49.025Z,12.03
2019-02-20T09:00:18.119Z,9.97
2019-02-20T09:02:46.695Z,10.53
2019-02-20T09:05:15.090Z,10.80
2019-02-20T09:07:43.490Z,10.17
2019-02-20T09:10:13.435Z,9.73
2019-02-20T09:12:41.854Z,11.00
2019-02-20T09:15:12.416Z,9.67
2019-02-20T09:17:40.814Z,10.37
2019-02-20T09:20:12.319Z,10.83
2019-02-20T09:22:41.026Z,10.53
2019-02-20T09:25:19.593Z,10.97
2019-02-20T09:27:41.294Z,10.63
2019-02-20T09:30:12.641Z,10.30
2019-02-20T09:32:41.054Z,11.47
2019-02-20T09:35:09.691Z,10.60
2019-02-20T09:37:38.106Z,12.03
2019-02-20T09:40:12.743Z,11.63
2019-02-20T09:42:41.829Z,10.63
2019-02-20T09:45:10.218Z,11.67
2019-02-20T09:47:38.608Z,11.63
2019-02-20T09:50:08.367Z,10.10
2019-02-20T09:52:36.767Z,10.27
2019-02-20T09:55:08.194Z,10.50
2019-02-20T09:57:36.641Z,11.50
2019-02-20T10:00:08.498Z,11.37
2019-02-20T10:02:36.893Z,10.70
2019-02-20T10:05:06.938Z,10.20
2019-02-20T10:07:35.346Z,9.67
2019-02-20T10:10:04.485Z,9.33
2019-02-20T10:12:32.882Z,10.03
2019-02-20T10:15:01.320Z,8.63
2019-02-20T10:17:29.782Z,8.93
2019-02-20T10:19:58.483Z,8.80
2019-02-20T10:22:26.870Z,7.97
2019-02-20T10:24:55.262Z,7.60
2019-02-20T10:27:23.670Z,8.17
2019-02-20T10:29:52.070Z,8.43
2019-02-20T10:32:20.782Z,7.67
2019-02-20T10:34:49.174Z,7.37
2019-02-20T10:37:17.922Z,5.60
2019-02-20T10:39:46.630Z,6.80
2019-02-20T10:42:15.054Z,5.57
2019-02-20T10:44:43.443Z,6.10
2019-02-20T10:47:12.075Z,6.43
2019-02-20T10:49:40.707Z,6.07
2019-02-20T10:52:09.094Z,5.27
2019-02-20T10:54:37.507Z,6.23
2019-02-20T10:57:05.891Z,5.90
2019-02-20T10:59:34.302Z,7.07
2019-02-20T11:02:02.701Z,6.97
2019-02-20T11:04:31.128Z,4.60
2019-02-20T11:06:59.514Z,5.63
2019-02-20T11:09:28.078Z,4.43
2019-02-20T11:11:56.477Z,4.80
2019-02-20T11:14:24.879Z,5.63
2019-02-20T11:16:53.614Z,5.60
2019-02-20T11:19:22.006Z,5.03
2019-02-20T11:21:50.578Z,5.80
2019-02-20T11:24:18.980Z,6.07
2019-02-20T11:26:54.769Z,6.50
2019-02-20T11:29:17.587Z,6.03
2019-02-20T11:31:45.991Z,6.13
2019-02-20T11:34:14.395Z,7.57
2019-02-20T11:36:42.794Z,6.83
2019-02-20T11:39:11.815Z,6.63
2019-02-20T11:41:40.261Z,6.67
2019-02-20T11:44:08.679Z,5.70
2019-02-20T11:46:37.076Z,6.37
2019-02-20T11:49:05.466Z,6.87
2019-02-20T11:51:33.874Z,6.10
2019-02-20T11:54:02.266Z,7.27
2019-02-20T11:56:30.670Z,5.63
2019-02-20T11:58:59.062Z,4.80
2019-02-20T12:01:27.506Z,4.73
2019-02-20T12:03:55.961Z,4.50
2019-02-20T12:06:24.357Z,4.67
2019-02-20T12:08:52.873Z,4.90
2019-02-20T12:11:21.356Z,4.30
2019-02-20T12:13:49.819Z,4.50
2019-02-20T12:16:18.239Z,4.93
2019-02-20T12:19:05.990Z,4.37
2019-02-20T12:21:34.404Z,5.23
2019-02-20T12:24:02.841Z,5.30
2019-02-20T12:26:35.157Z,5.10
2019-02-20T12:29:01.410Z,5.37
2019-02-20T12:31:29.874Z,5.07
2019-02-20T12:33:58.266Z,5.37
2019-02-20T12:36:26.674Z,5.60
2019-02-20T12:38:55.074Z,5.27
2019-02-20T12:41:23.466Z,4.93
2019-02-20T12:43:51.902Z,5.23
2019-02-20T12:46:20.349Z,5.00
2019-02-20T12:48:48.739Z,5.53
2019-02-20T12:51:17.305Z,5.20
2019-02-20T12:53:45.739Z,5.30
2019-02-20T12:56:14.492Z,4.60
2019-02-20T12:58:42.870Z,5.63
2019-02-20T13:01:11.266Z,5.63
2019-02-20T13:03:39.682Z,4.80
2019-02-20T13:06:08.092Z,5.00
2019-02-20T13:08:36.486Z,5.03
2019-02-20T13:11:04.898Z,6.13
2019-02-20T13:13:33.374Z,5.20
2019-02-20T13:16:09.418Z,5.27
2019-02-20T13:18:32.261Z,5.17
2019-02-20T13:21:00.637Z,5.63
2019-02-20T13:23:29.028Z,5.57
2019-02-20T13:25:57.454Z,5.90
2019-02-20T13:28:25.961Z,6.00
2019-02-20T13:30:54.347Z,5.00
2019-02-20T13:33:22.766Z,5.00
2019-02-20T13:35:51.158Z,6.27
2019-02-20T13:38:19.554Z,4.97
2019-02-20T13:40:47.970Z,5.07
2019-02-20T13:43:16.378Z,5.73
2019-02-20T13:45:45.250Z,5.83
2019-02-20T13:48:13.730Z,5.27
2019-02-20T13:50:42.129Z,5.40
2019-02-20T13:53:10.559Z,6.13
2019-02-20T13:55:38.959Z,5.73
2019-02-20T13:58:07.442Z,5.70
2019-02-20T14:00:35.868Z,5.93
2019-02-20T14:03:04.627Z,5.63
2019-02-20T14:05:33.056Z,5.90
2019-02-20T14:08:01.454Z,5.73
2019-02-20T14:10:29.850Z,5.63
2019-02-20T14:12:58.275Z,5.27
2019-02-20T14:15:26.662Z,4.80
2019-02-20T14:17:55.090Z,5.37
2019-02-20T14:20:23.763Z,5.10
2019-02-20T14:22:52.226Z,5.00
2019-02-20T14:25:20.657Z,5.40
2019-02-20T14:27:49.045Z,5.10
2019-02-20T14:30:17.438Z,4.97
2019-02-20T14:32:45.954Z,4.87
2019-02-20T14:35:15.173Z,5.00
2019-02-20T14:37:43.937Z,5.40
2019-02-20T14:40:12.343Z,5.13
2019-02-20T14:42:40.746Z,5.10
2019-02-20T14:45:15.222Z,5.03
2019-02-20T14:47:43.692Z,5.17
2019-02-20T14:50:14.254Z,5.27
2019-02-20T14:52:42.719Z,5.20
2019-02-20T14:55:30.639Z,4.80
2019-02-20T14:57:59.078Z,4.83
2019-02-20T15:00:27.473Z,4.73
2019-02-20T15:02:55.882Z,4.57
2019-02-20T15:05:24.280Z,4.90
2019-02-20T15:07:52.871Z,4.10
2019-02-20T15:10:21.261Z,4.90
2019-02-20T15:12:49.678Z,4.63
2019-02-20T15:15:19.135Z,4.33
2019-02-20T15:17:47.674Z,4.27
2019-02-20T15:20:16.351Z,4.27
2019-02-20T15:22:44.767Z,4.20
2019-02-20T15:25:13.199Z,4.53
2019-02-20T15:27:41.614Z,4.20
2019-02-20T15:30:12.722Z,4.13
2019-02-20T15:32:41.303Z,3.97
2019-02-20T15:35:10.346Z,4.17
2019-02-20T15:37:39.066Z,3.97
2019-02-20T15:40:09.339Z,4.50
2019-02-20T15:42:37.756Z,4.20
2019-02-20T15:45:08.586Z,4.70
2019-02-20T15:47:37.070Z,4.83
2019-02-20T15:50:08.820Z,5.10
2019-02-20T15:52:37.296Z,5.20
2019-02-20T15:55:07.503Z,5.77
2019-02-20T15:57:38.238Z,6.37
2019-02-20T16:00:16.096Z,5.17
2019-02-20T16:02:44.828Z,4.67
2019-02-20T16:05:13.846Z,4.73
2019-02-20T16:07:42.551Z,4.37
2019-02-20T16:10:11.309Z,4.70
2019-02-20T16:12:39.718Z,4.40
2019-02-20T16:15:09.925Z,4.43
2019-02-20T16:17:38.315Z,4.13
2019-02-20T16:20:09.978Z,4.50
2019-02-20T16:22:38.409Z,5.37
2019-02-20T16:25:09.784Z,3.93
2019-02-20T16:27:46.505Z,5.23
2019-02-20T16:30:11.049Z,4.83
2019-02-20T16:32:39.574Z,4.37
2019-02-20T16:35:09.923Z,5.17
2019-02-20T16:37:38.321Z,5.23
2019-02-20T16:40:09.974Z,5.07
2019-02-20T16:42:39.340Z,5.47
2019-02-20T16:45:24.650Z,4.97
2019-02-20T16:47:53.691Z,5.30
2019-02-20T16:50:22.101Z,6.17
2019-02-20T16:52:50.497Z,5.70
2019-02-20T16:55:19.747Z,4.70
2019-02-20T16:57:56.197Z,5.43
2019-02-20T17:00:21.121Z,5.33
2019-02-20T17:02:50.071Z,5.83
2019-02-20T17:05:18.467Z,5.80
2019-02-20T17:07:46.937Z,5.60
2019-02-20T17:10:16.108Z,6.30
2019-02-20T17:12:44.606Z,6.30
2019-02-20T17:15:15.411Z,7.83
2019-02-20T17:17:43.941Z,8.87
2019-02-20T17:20:17.736Z,7.40
2019-02-20T17:22:46.622Z,7.27
2019-02-20T17:25:17.090Z,7.53
2019-02-20T17:27:45.502Z,9.90
2019-02-20T17:30:16.039Z,7.70
2019-02-20T17:32:44.823Z,7.40
2019-02-20T17:35:13.905Z,8.30
2019-02-20T17:37:42.399Z,8.13
2019-02-20T17:40:11.905Z,9.37
2019-02-20T17:42:40.330Z,8.73
2019-02-20T17:45:18.792Z,8.40
2019-02-20T17:47:47.462Z,8.93
2019-02-20T17:50:23.365Z,8.77
2019-02-20T17:52:51.762Z,8.23
2019-02-20T17:55:20.154Z,8.63
2019-02-20T17:57:48.558Z,9.73
2019-02-20T18:00:19.523Z,9.33
2019-02-20T18:02:48.185Z,9.47
2019-02-20T18:05:21.319Z,9.80
2019-02-20T18:07:52.007Z,9.07
2019-02-20T18:10:20.214Z,9.57
2019-02-20T18:12:48.620Z,10.10
2019-02-20T18:15:17.001Z,8.70
2019-02-20T18:17:45.482Z,10.90
2019-02-20T18:20:13.948Z,10.47
2019-02-20T18:22:43.800Z,10.37
2019-02-20T18:25:12.973Z,10.07
2019-02-20T18:27:41.354Z,10.67
2019-02-20T18:30:16.262Z,11.70
2019-02-20T18:32:44.675Z,10.63
2019-02-20T18:35:15.186Z,10.37
2019-02-20T18:37:43.622Z,11.50
2019-02-20T18:40:18.156Z,11.07
2019-02-20T18:42:46.548Z,12.60
2019-02-20T18:45:15.793Z,12.53
2019-02-20T18:47:44.354Z,11.77
2019-02-20T18:50:15.269Z,13.03
2019-02-20T18:52:43.754Z,12.63
2019-02-20T18:55:13.662Z,13.50
2019-02-20T18:57:42.306Z,12.63
2019-02-20T19:00:16.436Z,12.20
2019-02-20T19:02:44.858Z,11.97
2019-02-20T19:05:13.592Z,14.30
2019-02-20T19:07:42.077Z,14.40
2019-02-20T19:10:16.540Z,13.70
2019-02-20T19:12:57.322Z,16.00
2019-02-20T19:15:28.790Z,16.77
2019-02-20T19:18:03.219Z,15.80
2019-02-20T19:20:52.800Z,17.07
2019-02-20T19:23:30.264Z,16.40
2019-02-20T19:26:13.991Z,16.97
2019-02-20T19:29:13.764Z,15.20
2019-02-20T19:32:09.417Z,13.60
2019-02-20T19:34:49.754Z,12.60
2019-02-20T19:37:38.050Z,11.80
2019-02-20T19:40:09.638Z,13.13
2019-02-20T19:42:43.836Z,13.67
2019-02-20T19:45:29.936Z,12.10
2019-02-20T19:48:06.901Z,12.93
2019-02-20T19:50:41.307Z,15.50
2019-02-20T19:53:12.774Z,15.20
2019-02-20T19:55:55.881Z,14.97
2019-02-20T19:58:42.611Z,14.57
2019-02-20T20:01:17.584Z,15.70
2019-02-20T20:04:06.992Z,14.60
2019-02-20T20:06:53.699Z,13.70
2019-02-20T20:09:46.098Z,14.37
2019-02-20T20:12:32.484Z,12.43
2019-02-20T20:15:19.119Z,12.97
2019-02-20T20:18:13.600Z,12.60
2019-02-20T20:21:01.411Z,12.93
2019-02-20T20:23:39.051Z,13.23
2019-02-20T20:26:42.305Z,13.53
2019-02-20T20:29:45.757Z,13.03
2019-02-20T20:32:32.452Z,12.97
2019-02-20T20:35:33.039Z,12.80
2019-02-20T20:38:19.538Z,14.20
2019-02-20T20:41:09.297Z,15.33
2019-02-20T20:43:49.752Z,16.27
2019-02-20T20:46:30.005Z,15.47
2019-02-20T20:49:13.335Z,14.63
2019-02-20T20:52:03.259Z,14.73
2019-02-20T20:55:07.924Z,12.53
2019-02-20T20:57:51.205Z,13.67
2019-02-20T21:00:47.060Z,14.03
2019-02-20T21:03:18.656Z,14.07
2019-02-20T21:06:12.715Z,14.50
2019-02-20T21:08:44.216Z,13.87
2019-02-20T21:11:18.543Z,14.13
2019-02-20T21:13:50.035Z,14.27
2019-02-20T21:16:30.542Z,14.83
2019-02-20T21:19:25.693Z,14.13
2019-02-20T21:22:13.701Z,14.90
2019-02-20T21:25:00.535Z,15.10
2019-02-20T21:27:46.907Z,14.63
2019-02-20T21:30:18.395Z,13.90
2019-02-20T21:33:08.055Z,15.03
2019-02-20T21:36:00.321Z,14.83
2019-02-20T21:38:34.695Z,16.50
2019-02-20T21:41:09.142Z,21.03
2019-02-20T21:44:01.733Z,17.77
2019-02-20T21:46:58.701Z,16.40
2019-02-20T21:49:36.038Z,15.37
2019-02-20T21:52:19.371Z,15.50
2019-02-20T21:55:10.259Z,14.33
2019-02-20T21:57:50.920Z,13.30
2019-02-20T22:00:28.170Z,13.67
2019-02-20T22:02:59.762Z,12.87
2019-02-20T22:05:49.078Z,13.40
2019-02-20T22:08:20.598Z,9.80
2019-02-20T22:11:18.825Z,10.00
2019-02-20T22:14:23.683Z,10.27
2019-02-20T22:17:11.595Z,10.27
2019-02-20T22:20:01.401Z,9.67
2019-02-20T22:23:05.906Z,9.03
2019-02-20T22:25:49.387Z,9.70
2019-02-20T22:28:20.927Z,8.87
2019-02-20T22:31:16.802Z,9.37
2019-02-20T22:34:03.354Z,9.53
2019-02-20T22:36:41.715Z,11.60
2019-02-20T22:39:18.975Z,9.67
2019-02-20T22:42:13.387Z,10.97
2019-02-20T22:45:02.746Z,10.83
2019-02-20T22:47:37.234Z,9.93
2019-02-20T22:50:17.394Z,10.77
2019-02-20T22:52:51.551Z,10.10
2019-02-20T22:55:41.158Z,10.07
2019-02-20T22:58:21.559Z,10.97
2019-02-20T23:01:13.871Z,12.37
2019-02-20T23:04:01.935Z,11.53
2019-02-20T23:07:06.595Z,11.90
2019-02-20T23:09:53.308Z,11.30
2019-02-20T23:12:41.362Z,11.83
2019-02-20T23:15:09.774Z,11.53
2019-02-20T23:17:38.243Z,12.60
2019-02-20T23:20:08.494Z,11.97
2019-02-20T23:22:36.890Z,14.13
2019-02-20T23:25:06.338Z,13.10
2019-02-20T23:27:34.743Z,13.03
2019-02-20T23:30:12.617Z,14.67
2019-02-20T23:32:33.530Z,13.20
2019-02-20T23:35:01.937Z,13.53
2019-02-20T23:37:30.410Z,13.43
2019-02-20T23:39:58.802Z,13.13
2019-02-20T23:42:27.218Z,12.60
2019-02-20T23:44:55.625Z,12.27
2019-02-20T23:47:24.051Z,12.90
2019-02-20T23:49:52.446Z,12.17
2019-02-20T23:52:20.890Z,13.17
2019-02-20T23:54:49.293Z,11.90
2019-02-20T23:57:17.698Z,11.67
2019-02-20T23:59:46.103Z,10.07
